Time;durP1;ratioP1;P1;durP2;ratioP2;P2;SDS_P1;SDS_P2;PMS_P1;PMS_P2;Temp;Humidity;BMP_temperature;BMP_pressure;BME280_temperature;BME280_humidity;BME280_pressure;Samples;Min_cycle;Max_cycle;Signal;HPM_P1;HPM_P2
2022/08/28 00:02:05;;;;;;;24.70;7.80;;;;;;;;;;5085920;28;20024;-65
2022/08/28 00:04:31;;;;;;;23.17;8.30;;;;;;;;;;5085754;28;20038;-65
2022/08/28 00:06:56;;;;;;;25.43;7.67;;;;;;;;;;5089318;28;20028;-65
2022/08/28 00:09:22;;;;;;;21.77;7.87;;;;;;;;;;5091743;28;20410;-64
2022/08/28 00:11:48;;;;;;;23.27;8.03;;;;;;;;;;5090867;28;20032;-65
2022/08/28 00:14:14;;;;;;;28.47;8.57;;;;;;;;;;5083291;28;20044;-64
2022/08/28 00:16:39;;;;;;;23.03;8.03;;;;;;;;;;5091932;28;20069;-64
2022/08/28 00:19:05;;;;;;;24.93;8.57;;;;;;;;;;5081510;28;20020;-64
2022/08/28 00:21:31;;;;;;;18.20;7.27;;;;;;;;;;5083636;28;20021;-64
2022/08/28 00:23:57;;;;;;;26.63;8.23;;;;;;;;;;5082306;28;20024;-64
2022/08/28 00:29:06;;;;;;;25.13;7.97;;;;;;;;;;5084941;28;20146;-65
2022/08/28 00:31:32;;;;;;;24.40;8.23;;;;;;;;;;5090021;28;20099;-65
2022/08/28 00:33:57;;;;;;;24.73;8.60;;;;;;;;;;5090762;28;20024;-64
2022/08/28 00:36:23;;;;;;;26.73;8.47;;;;;;;;;;5082782;28;20565;-64
2022/08/28 00:38:49;;;;;;;25.03;8.57;;;;;;;;;;5089103;28;20084;-64
2022/08/28 00:41:15;;;;;;;22.57;8.23;;;;;;;;;;5088901;28;20411;-64
2022/08/28 00:43:41;;;;;;;19.93;8.50;;;;;;;;;;5087701;28;20024;-64
2022/08/28 00:46:11;;;;;;;29.40;9.20;;;;;;;;;;5090148;28;20400;-64
2022/08/28 00:48:37;;;;;;;26.27;9.70;;;;;;;;;;5083750;28;20065;-64
2022/08/28 00:53:47;;;;;;;22.57;9.00;;;;;;;;;;5083352;28;20105;-64
2022/08/28 00:56:14;;;;;;;27.00;8.77;;;;;;;;;;5088218;28;20066;-64
2022/08/28 00:58:41;;;;;;;18.03;8.07;;;;;;;;;;5082461;28;20423;-64
2022/08/28 01:01:06;;;;;;;21.83;8.10;;;;;;;;;;5084300;28;20138;-64
2022/08/28 01:03:31;;;;;;;27.30;8.23;;;;;;;;;;5084052;28;20699;-64
2022/08/28 01:05:57;;;;;;;22.53;8.60;;;;;;;;;;5089337;28;20070;-64
2022/08/28 01:08:22;;;;;;;22.73;8.60;;;;;;;;;;5086893;28;20042;-64
2022/08/28 01:10:49;;;;;;;23.23;8.37;;;;;;;;;;5087837;28;20016;-64
2022/08/28 01:13:15;;;;;;;31.93;9.33;;;;;;;;;;5085236;28;20495;-64
2022/08/28 01:15:41;;;;;;;21.60;9.33;;;;;;;;;;5088229;28;20056;-64
2022/08/28 01:18:07;;;;;;;31.90;9.33;;;;;;;;;;5089918;28;20028;-64
2022/08/28 01:20:34;;;;;;;30.20;11.63;;;;;;;;;;5091039;28;20028;-64
2022/08/28 01:23:13;;;;;;;46.40;23.93;;;;;;;;;;5086076;28;20031;-64
2022/08/28 01:25:39;;;;;;;26.07;9.70;;;;;;;;;;5089962;28;20032;-64
2022/08/28 01:28:07;;;;;;;21.10;8.10;;;;;;;;;;5090117;28;20024;-64
2022/08/28 01:30:33;;;;;;;23.67;9.57;;;;;;;;;;5090554;28;20024;-64
2022/08/28 01:32:58;;;;;;;29.73;9.73;;;;;;;;;;5091892;28;20087;-64
2022/08/28 01:35:28;;;;;;;26.83;9.73;;;;;;;;;;5089592;28;20049;-64
2022/08/28 01:37:54;;;;;;;26.67;11.17;;;;;;;;;;5091863;28;20420;-64
2022/08/28 01:40:46;;;;;;;26.70;11.00;;;;;;;;;;5090693;28;20110;-64
2022/08/28 01:43:19;;;;;;;30.48;11.63;;;;;;;;;;5086709;28;20123;-64
2022/08/28 01:45:47;;;;;;;28.40;11.03;;;;;;;;;;5085258;28;20031;-64
2022/08/28 01:48:13;;;;;;;30.43;12.37;;;;;;;;;;5090181;28;20551;-64
2022/08/28 01:50:39;;;;;;;33.23;11.87;;;;;;;;;;5089610;28;20103;-65
2022/08/28 01:53:05;;;;;;;31.83;11.87;;;;;;;;;;5086237;28;20047;-64
2022/08/28 01:55:34;;;;;;;27.20;11.43;;;;;;;;;;5084561;28;20024;-64
2022/08/28 01:58:00;;;;;;;21.63;9.60;;;;;;;;;;5089432;28;20073;-64
2022/08/28 02:00:27;;;;;;;27.63;10.80;;;;;;;;;;5085234;28;20427;-64
2022/08/28 02:02:54;;;;;;;23.50;9.37;;;;;;;;;;5090019;28;20020;-64
2022/08/28 02:05:20;;;;;;;26.07;10.13;;;;;;;;;;5089662;28;20147;-64
2022/08/28 02:07:45;;;;;;;19.87;10.27;;;;;;;;;;5090800;28;20107;-64
2022/08/28 02:10:11;;;;;;;26.60;10.20;;;;;;;;;;5085792;28;20022;-64
2022/08/28 02:12:36;;;;;;;25.40;10.10;;;;;;;;;;5085891;28;20074;-64
2022/08/28 02:15:02;;;;;;;24.47;10.10;;;;;;;;;;5089202;28;20019;-64
2022/08/28 02:17:27;;;;;;;23.27;9.67;;;;;;;;;;5088679;28;20012;-64
2022/08/28 02:19:53;;;;;;;24.47;9.47;;;;;;;;;;5089303;28;20027;-64
2022/08/28 02:22:18;;;;;;;24.23;9.20;;;;;;;;;;5091831;28;20015;-64
2022/08/28 02:24:44;;;;;;;28.83;10.03;;;;;;;;;;5086212;28;20116;-64
2022/08/28 02:27:09;;;;;;;21.80;9.67;;;;;;;;;;5090960;28;20189;-64
2022/08/28 02:29:34;;;;;;;27.47;10.70;;;;;;;;;;5091256;28;20023;-64
2022/08/28 02:31:59;;;;;;;31.47;11.07;;;;;;;;;;5085677;28;20049;-64
2022/08/28 02:34:25;;;;;;;27.20;11.27;;;;;;;;;;5088286;28;20119;-64
2022/08/28 02:36:50;;;;;;;34.67;12.03;;;;;;;;;;5087656;28;20328;-64
2022/08/28 02:39:15;;;;;;;28.80;12.20;;;;;;;;;;5089119;28;20039;-64
2022/08/28 02:41:41;;;;;;;29.87;11.87;;;;;;;;;;5090179;28;20020;-64
2022/08/28 02:44:06;;;;;;;35.43;11.30;;;;;;;;;;5087888;28;20024;-64
2022/08/28 02:46:32;;;;;;;27.40;11.00;;;;;;;;;;5069944;28;20035;-64
2022/08/28 02:48:57;;;;;;;31.80;12.10;;;;;;;;;;5088761;28;20188;-64
2022/08/28 02:51:22;;;;;;;38.27;12.47;;;;;;;;;;5090804;28;20134;-64
2022/08/28 02:53:49;;;;;;;30.10;11.30;;;;;;;;;;5086114;28;20099;-64
2022/08/28 02:56:15;;;;;;;28.17;10.43;;;;;;;;;;5089650;28;20024;-64
2022/08/28 02:58:40;;;;;;;31.43;12.00;;;;;;;;;;5086852;28;20033;-64
2022/08/28 03:01:08;;;;;;;26.33;11.50;;;;;;;;;;5088812;28;20455;-64
2022/08/28 03:03:33;;;;;;;29.87;12.13;;;;;;;;;;5090370;28;20028;-64
2022/08/28 03:05:59;;;;;;;35.33;10.70;;;;;;;;;;5089097;28;20061;-64
2022/08/28 03:08:24;;;;;;;36.03;11.80;;;;;;;;;;5087081;28;20024;-64
2022/08/28 03:10:50;;;;;;;34.30;12.17;;;;;;;;;;5088112;28;20027;-64
2022/08/28 03:13:16;;;;;;;34.50;12.10;;;;;;;;;;5086665;28;20551;-64
2022/08/28 03:15:42;;;;;;;33.90;12.53;;;;;;;;;;5088232;28;20047;-64
2022/08/28 03:18:08;;;;;;;32.90;13.07;;;;;;;;;;5086682;28;20031;-64
2022/08/28 03:20:33;;;;;;;44.03;13.63;;;;;;;;;;5084541;28;20090;-64
2022/08/28 03:25:42;;;;;;;41.80;15.13;;;;;;;;;;5086485;28;20078;-64
2022/08/28 03:28:07;;;;;;;38.57;14.30;;;;;;;;;;5086257;28;20032;-64
2022/08/28 03:30:32;;;;;;;39.53;14.57;;;;;;;;;;5090432;28;20045;-64
2022/08/28 03:32:58;;;;;;;38.37;14.23;;;;;;;;;;5080924;28;20028;-64
2022/08/28 03:35:23;;;;;;;33.37;14.37;;;;;;;;;;5086042;28;20031;-64
2022/08/28 03:37:48;;;;;;;40.53;13.90;;;;;;;;;;5085781;28;20069;-64
2022/08/28 03:40:14;;;;;;;41.07;14.00;;;;;;;;;;5088421;28;20021;-65
2022/08/28 03:42:39;;;;;;;39.03;13.87;;;;;;;;;;5084644;28;20488;-64
2022/08/28 03:45:07;;;;;;;38.00;14.47;;;;;;;;;;5084856;28;20023;-64
2022/08/28 03:47:34;;;;;;;41.87;14.27;;;;;;;;;;5085655;28;20039;-64
2022/08/28 03:49:59;;;;;;;38.10;14.33;;;;;;;;;;5088299;28;20391;-64
2022/08/28 03:52:25;;;;;;;37.07;14.27;;;;;;;;;;5088880;28;20031;-64
2022/08/28 03:54:50;;;;;;;38.43;15.03;;;;;;;;;;5085942;28;20020;-64
2022/08/28 03:57:17;;;;;;;39.80;15.03;;;;;;;;;;5083436;28;20356;-64
2022/08/28 03:59:43;;;;;;;41.37;15.30;;;;;;;;;;5087878;28;20136;-64
2022/08/28 04:02:08;;;;;;;40.17;15.20;;;;;;;;;;5086952;28;20063;-64
2022/08/28 04:04:33;;;;;;;43.97;16.47;;;;;;;;;;5087857;28;20039;-64
2022/08/28 04:06:58;;;;;;;40.97;15.37;;;;;;;;;;5081878;28;20496;-64
2022/08/28 04:09:23;;;;;;;40.13;16.30;;;;;;;;;;5089443;28;20681;-64
2022/08/28 04:11:49;;;;;;;37.70;15.43;;;;;;;;;;5090147;28;20502;-64
2022/08/28 04:14:14;;;;;;;45.37;16.20;;;;;;;;;;5088793;28;20495;-64
2022/08/28 04:16:40;;;;;;;41.80;15.97;;;;;;;;;;5086190;28;20105;-64
2022/08/28 04:19:05;;;;;;;43.73;15.67;;;;;;;;;;5087105;28;20055;-64
2022/08/28 04:21:30;;;;;;;47.40;16.33;;;;;;;;;;5088739;28;20023;-64
2022/08/28 04:23:55;;;;;;;46.33;16.83;;;;;;;;;;5086444;28;20034;-64
2022/08/28 04:26:22;;;;;;;36.30;15.83;;;;;;;;;;5084787;28;20067;-64
2022/08/28 04:28:48;;;;;;;43.07;15.47;;;;;;;;;;5087275;28;20031;-64
2022/08/28 04:31:14;;;;;;;36.60;15.53;;;;;;;;;;5088025;28;20016;-64
2022/08/28 04:33:39;;;;;;;41.97;16.37;;;;;;;;;;5088404;28;20025;-64
2022/08/28 04:36:06;;;;;;;45.07;15.63;;;;;;;;;;5087580;28;20024;-65
2022/08/28 04:38:31;;;;;;;39.03;15.30;;;;;;;;;;5087637;28;20073;-64
2022/08/28 04:40:57;;;;;;;41.33;15.23;;;;;;;;;;5081667;28;20071;-64
2022/08/28 04:43:22;;;;;;;46.43;15.83;;;;;;;;;;5084220;28;20047;-64
2022/08/28 04:45:47;;;;;;;36.97;14.73;;;;;;;;;;5087879;28;20032;-64
2022/08/28 04:48:13;;;;;;;34.70;14.77;;;;;;;;;;5090855;28;20015;-64
2022/08/28 04:50:40;;;;;;;39.03;15.73;;;;;;;;;;5089700;28;20102;-64
2022/08/28 04:53:05;;;;;;;37.77;14.63;;;;;;;;;;5093388;28;20027;-64
2022/08/28 04:55:30;;;;;;;39.43;14.17;;;;;;;;;;5085543;28;20026;-64
2022/08/28 04:57:55;;;;;;;32.30;14.07;;;;;;;;;;5088121;28;20472;-64
2022/08/28 05:00:22;;;;;;;34.63;12.87;;;;;;;;;;5085047;28;20043;-64
2022/08/28 05:02:47;;;;;;;31.93;11.63;;;;;;;;;;5089931;28;20051;-65
2022/08/28 05:05:13;;;;;;;35.80;10.40;;;;;;;;;;5086445;28;20064;-64
2022/08/28 05:07:38;;;;;;;20.27;8.43;;;;;;;;;;5091715;28;20025;-65
2022/08/28 05:10:03;;;;;;;16.57;7.00;;;;;;;;;;5080997;28;20023;-64
2022/08/28 05:12:28;;;;;;;12.90;5.90;;;;;;;;;;5087656;28;20016;-64
2022/08/28 05:14:54;;;;;;;18.97;5.70;;;;;;;;;;5086277;28;20012;-65
2022/08/28 05:17:19;;;;;;;14.83;5.70;;;;;;;;;;5089013;28;20165;-64
2022/08/28 05:19:44;;;;;;;21.73;5.90;;;;;;;;;;5085954;28;20433;-65
2022/08/28 05:22:09;;;;;;;14.53;6.13;;;;;;;;;;5091062;28;20507;-64
2022/08/28 05:24:38;;;;;;;16.20;6.27;;;;;;;;;;5086428;28;20069;-64
2022/08/28 05:27:04;;;;;;;19.73;5.93;;;;;;;;;;5090663;28;20112;-64
2022/08/28 05:29:30;;;;;;;14.97;5.93;;;;;;;;;;5089597;28;20103;-65
2022/08/28 05:31:55;;;;;;;19.10;6.10;;;;;;;;;;5071145;28;20020;-64
2022/08/28 05:34:20;;;;;;;15.53;6.10;;;;;;;;;;5088026;28;20045;-65
2022/08/28 05:36:45;;;;;;;16.90;5.80;;;;;;;;;;5090866;28;20054;-64
2022/08/28 05:39:12;;;;;;;14.17;5.87;;;;;;;;;;5090934;28;20495;-65
2022/08/28 05:41:38;;;;;;;16.83;5.67;;;;;;;;;;5088553;28;20035;-64
2022/08/28 05:44:05;;;;;;;15.67;4.80;;;;;;;;;;5088074;28;20476;-64
2022/08/28 05:46:30;;;;;;;11.13;4.27;;;;;;;;;;5085590;28;20436;-65
2022/08/28 05:48:56;;;;;;;7.60;3.60;;;;;;;;;;5086631;28;20028;-64
2022/08/28 05:51:23;;;;;;;11.77;3.58;;;;;;;;;;5083933;28;20012;-65
2022/08/28 05:53:48;;;;;;;9.63;3.60;;;;;;;;;;5089360;28;20055;-65
2022/08/28 05:56:15;;;;;;;13.93;3.30;;;;;;;;;;5083844;28;20055;-65
2022/08/28 05:58:41;;;;;;;10.50;3.20;;;;;;;;;;5087628;28;20706;-65
2022/08/28 06:01:10;;;;;;;13.25;3.75;;;;;;;;;;5089157;28;20051;-65
2022/08/28 06:03:36;;;;;;;12.25;3.22;;;;;;;;;;5091662;28;20036;-65
2022/08/28 06:06:01;;;;;;;9.98;3.05;;;;;;;;;;5087358;28;20023;-65
2022/08/28 06:08:27;;;;;;;9.15;2.90;;;;;;;;;;5090272;28;20035;-64
2022/08/28 06:10:53;;;;;;;8.48;2.80;;;;;;;;;;5088723;28;20012;-64
2022/08/28 06:13:18;;;;;;;8.25;2.70;;;;;;;;;;5070472;28;20035;-65
2022/08/28 06:15:44;;;;;;;8.82;2.65;;;;;;;;;;5089028;28;20028;-65
2022/08/28 06:18:09;;;;;;;9.98;2.97;;;;;;;;;;5089448;28;20435;-65
2022/08/28 06:20:36;;;;;;;9.77;2.88;;;;;;;;;;5093070;28;20024;-65
2022/08/28 06:23:01;;;;;;;8.45;2.95;;;;;;;;;;5087279;28;20047;-65
2022/08/28 06:25:26;;;;;;;10.73;3.50;;;;;;;;;;5089869;28;20384;-65
2022/08/28 06:27:51;;;;;;;9.75;3.00;;;;;;;;;;5091960;28;20427;-65
2022/08/28 06:30:17;;;;;;;11.23;2.80;;;;;;;;;;5092543;28;20494;-65
2022/08/28 06:32:42;;;;;;;9.93;3.45;;;;;;;;;;5082489;28;20028;-65
2022/08/28 06:35:07;;;;;;;12.68;3.10;;;;;;;;;;5091956;28;20028;-65
2022/08/28 06:37:32;;;;;;;11.35;3.05;;;;;;;;;;5077586;28;20021;-65
2022/08/28 06:39:58;;;;;;;13.18;3.05;;;;;;;;;;5088415;28;20036;-64
2022/08/28 06:42:24;;;;;;;12.20;3.28;;;;;;;;;;5087058;28;20084;-65
2022/08/28 06:44:49;;;;;;;10.02;2.90;;;;;;;;;;5088847;28;20049;-65
2022/08/28 06:47:14;;;;;;;10.20;2.90;;;;;;;;;;5088128;28;20034;-65
2022/08/28 06:49:40;;;;;;;10.23;2.55;;;;;;;;;;5094725;28;20028;-64
2022/08/28 06:52:05;;;;;;;13.10;3.47;;;;;;;;;;5090334;28;20023;-65
2022/08/28 06:54:30;;;;;;;10.98;2.63;;;;;;;;;;5086685;28;20054;-64
2022/08/28 06:56:56;;;;;;;10.35;2.53;;;;;;;;;;5089393;28;20076;-65
2022/08/28 06:59:21;;;;;;;8.63;2.60;;;;;;;;;;5087329;28;20036;-65
2022/08/28 07:01:46;;;;;;;9.02;2.45;;;;;;;;;;5091816;28;20408;-65
2022/08/28 07:04:13;;;;;;;10.95;2.33;;;;;;;;;;5090531;28;20028;-65
2022/08/28 07:06:39;;;;;;;10.55;2.80;;;;;;;;;;5091505;28;20028;-65
2022/08/28 07:09:06;;;;;;;7.47;2.45;;;;;;;;;;5091728;28;20012;-64
2022/08/28 07:11:32;;;;;;;12.40;3.05;;;;;;;;;;5090314;28;20019;-65
2022/08/28 07:13:58;;;;;;;11.15;2.95;;;;;;;;;;5091041;28;20494;-65
2022/08/28 07:16:25;;;;;;;9.75;2.30;;;;;;;;;;5091725;28;20016;-65
2022/08/28 07:18:51;;;;;;;8.20;2.30;;;;;;;;;;5090846;28;20073;-65
2022/08/28 07:21:17;;;;;;;8.30;2.40;;;;;;;;;;5092677;28;20059;-65
2022/08/28 07:23:43;;;;;;;11.95;2.92;;;;;;;;;;5091573;28;20055;-65
2022/08/28 07:26:10;;;;;;;7.53;2.30;;;;;;;;;;5090757;28;20024;-65
2022/08/28 07:28:35;;;;;;;8.65;2.50;;;;;;;;;;5090725;28;20024;-65
2022/08/28 07:31:02;;;;;;;8.60;2.45;;;;;;;;;;5080721;28;20035;-65
2022/08/28 07:33:28;;;;;;;7.78;2.50;;;;;;;;;;5076012;28;20020;-65
2022/08/28 07:35:53;;;;;;;9.50;2.28;;;;;;;;;;5071947;28;20492;-65
2022/08/28 07:38:19;;;;;;;8.70;2.50;;;;;;;;;;5071763;28;20024;-65
2022/08/28 07:40:45;;;;;;;8.40;2.05;;;;;;;;;;5071292;28;20380;-65
2022/08/28 07:46:01;;;;;;;10.20;2.30;;;;;;;;;;5091585;28;20600;-65
2022/08/28 07:48:27;;;;;;;7.13;2.17;;;;;;;;;;5073043;28;20036;-65
2022/08/28 07:50:52;;;;;;;8.90;2.08;;;;;;;;;;5071104;28;20020;-65
2022/08/28 07:53:17;;;;;;;8.07;1.98;;;;;;;;;;5077214;28;20027;-65
2022/08/28 07:55:43;;;;;;;8.77;2.15;;;;;;;;;;5070774;28;20021;-65
2022/08/28 07:58:08;;;;;;;7.65;2.70;;;;;;;;;;5083938;28;20040;-65
2022/08/28 08:00:33;;;;;;;6.07;2.30;;;;;;;;;;5090938;28;20012;-65
2022/08/28 08:02:59;;;;;;;10.90;4.68;;;;;;;;;;5090580;28;20043;-64
2022/08/28 08:05:24;;;;;;;10.15;2.00;;;;;;;;;;5074254;28;20031;-65
2022/08/28 08:07:49;;;;;;;7.72;2.00;;;;;;;;;;5083995;28;20114;-65
2022/08/28 08:10:15;;;;;;;7.80;1.80;;;;;;;;;;5082375;28;20020;-65
2022/08/28 08:12:41;;;;;;;12.00;2.10;;;;;;;;;;5081498;28;20036;-64
2022/08/28 08:15:08;;;;;;;6.50;1.75;;;;;;;;;;5082641;28;20476;-64
2022/08/28 08:17:34;;;;;;;8.75;1.80;;;;;;;;;;5081565;28;20545;-65
2022/08/28 08:19:59;;;;;;;7.65;1.85;;;;;;;;;;5086027;28;20031;-65
2022/08/28 08:22:25;;;;;;;5.95;1.80;;;;;;;;;;5086405;28;20028;-65
2022/08/28 08:24:54;;;;;;;6.72;2.00;;;;;;;;;;5084755;28;20031;-65
2022/08/28 08:27:19;;;;;;;8.60;2.00;;;;;;;;;;5089929;28;20050;-65
2022/08/28 08:29:44;;;;;;;8.50;2.00;;;;;;;;;;5089995;28;20118;-65
2022/08/28 08:32:10;;;;;;;6.88;1.98;;;;;;;;;;5086023;28;20031;-65
2022/08/28 08:34:37;;;;;;;6.97;1.83;;;;;;;;;;5076541;28;20020;-65
2022/08/28 08:37:04;;;;;;;5.60;1.90;;;;;;;;;;5090496;28;20422;-65
2022/08/28 08:39:29;;;;;;;7.43;1.75;;;;;;;;;;5090120;28;20032;-65
2022/08/28 08:41:56;;;;;;;7.03;1.80;;;;;;;;;;5087358;28;20039;-65
2022/08/28 08:44:30;;;;;;;7.78;1.67;;;;;;;;;;5088839;28;20022;-65
2022/08/28 08:47:11;;;;;;;7.95;1.95;;;;;;;;;;5088034;28;20042;-65
2022/08/28 08:49:38;;;;;;;6.70;1.70;;;;;;;;;;5081434;28;20460;-65
2022/08/28 08:52:15;;;;;;;9.40;1.65;;;;;;;;;;5089208;28;20356;-65
2022/08/28 08:54:42;;;;;;;8.93;2.55;;;;;;;;;;5081052;28;20094;-65
2022/08/28 08:57:12;;;;;;;7.13;1.70;;;;;;;;;;5081878;28;20024;-66
2022/08/28 08:59:38;;;;;;;6.75;1.60;;;;;;;;;;5086596;28;20501;-65
2022/08/28 09:02:09;;;;;;;5.80;1.70;;;;;;;;;;5087483;28;20470;-65
2022/08/28 09:04:45;;;;;;;8.18;1.98;;;;;;;;;;5075561;28;21351;-65
2022/08/28 09:07:22;;;;;;;8.95;1.80;;;;;;;;;;5088950;28;20052;-65
2022/08/28 09:09:51;;;;;;;5.97;1.45;;;;;;;;;;5087104;28;20028;-65
2022/08/28 09:12:20;;;;;;;9.00;1.88;;;;;;;;;;5080893;28;20026;-65
2022/08/28 09:15:04;;;;;;;7.05;2.00;;;;;;;;;;5085663;28;20075;-65
2022/08/28 09:17:37;;;;;;;12.07;2.25;;;;;;;;;;5087879;28;20691;-65
2022/08/28 09:20:09;;;;;;;9.13;1.80;;;;;;;;;;5083023;28;20342;-65
2022/08/28 09:22:36;;;;;;;8.18;1.60;;;;;;;;;;5094689;28;20031;-65
2022/08/28 09:25:01;;;;;;;5.72;1.40;;;;;;;;;;5086746;28;20020;-65
2022/08/28 09:27:28;;;;;;;7.22;1.77;;;;;;;;;;5085975;28;20035;-65
2022/08/28 09:30:04;;;;;;;10.00;1.42;;;;;;;;;;5088056;28;20432;-65
2022/08/28 09:32:34;;;;;;;6.47;1.60;;;;;;;;;;5089560;28;20027;-65
2022/08/28 09:35:02;;;;;;;7.28;1.50;;;;;;;;;;5086100;28;20055;-65
2022/08/28 09:37:30;;;;;;;8.20;1.50;;;;;;;;;;5082972;28;20024;-65
2022/08/28 09:40:15;;;;;;;9.85;1.80;;;;;;;;;;5088908;28;20168;-65
2022/08/28 09:45:38;;;;;;;6.70;1.95;;;;;;;;;;5088060;28;20035;-65
2022/08/28 09:48:16;;;;;;;9.20;1.90;;;;;;;;;;5081613;28;20483;-64
2022/08/28 09:50:42;;;;;;;7.07;1.70;;;;;;;;;;5083118;28;20028;-65
2022/08/28 09:53:07;;;;;;;6.22;1.60;;;;;;;;;;5081065;28;20024;-65
2022/08/28 09:55:36;;;;;;;5.45;1.55;;;;;;;;;;5087123;28;20098;-65
2022/08/28 09:58:02;;;;;;;8.23;1.80;;;;;;;;;;5085984;28;20047;-65
2022/08/28 10:00:29;;;;;;;6.82;1.92;;;;;;;;;;5086818;28;20036;-65
2022/08/28 10:03:00;;;;;;;7.07;1.70;;;;;;;;;;5086686;28;20044;-65
2022/08/28 10:05:38;;;;;;;5.28;1.40;;;;;;;;;;5088591;28;20028;-65
2022/08/28 10:08:07;;;;;;;5.85;1.48;;;;;;;;;;5079642;28;20445;-65
2022/08/28 10:10:39;;;;;;;7.30;1.63;;;;;;;;;;5080910;28;20016;-65
2022/08/28 10:13:09;;;;;;;6.97;1.50;;;;;;;;;;5084362;28;20372;-65
2022/08/28 10:15:37;;;;;;;6.05;1.50;;;;;;;;;;5083998;28;20372;-65
2022/08/28 10:18:05;;;;;;;5.53;1.63;;;;;;;;;;5089798;28;20020;-65
2022/08/28 10:20:36;;;;;;;10.07;1.65;;;;;;;;;;5082487;28;20024;-65
2022/08/28 10:23:15;;;;;;;8.00;1.50;;;;;;;;;;5083980;28;20016;-65
2022/08/28 10:25:54;;;;;;;7.35;1.70;;;;;;;;;;5081546;28;20525;-65
2022/08/28 10:28:28;;;;;;;4.90;1.38;;;;;;;;;;5086830;28;20028;-65
2022/08/28 10:30:59;;;;;;;6.65;1.60;;;;;;;;;;5086453;28;20051;-64
2022/08/28 10:33:50;;;;;;;7.38;1.70;;;;;;;;;;5089322;28;20016;-65
2022/08/28 10:36:18;;;;;;;4.57;1.30;;;;;;;;;;5067048;28;20024;-65
2022/08/28 10:38:46;;;;;;;8.15;1.88;;;;;;;;;;5096359;28;20034;-65
2022/08/28 10:41:22;;;;;;;5.53;1.52;;;;;;;;;;5076838;28;22157;-65
2022/08/28 10:43:49;;;;;;;6.20;1.83;;;;;;;;;;5084117;28;20035;-65
2022/08/28 10:46:22;;;;;;;9.20;2.08;;;;;;;;;;5084203;28;20035;-65
2022/08/28 10:48:56;;;;;;;10.35;1.83;;;;;;;;;;5080650;28;20472;-65
2022/08/28 10:51:22;;;;;;;6.50;1.73;;;;;;;;;;5069273;28;20078;-65
2022/08/28 10:53:56;;;;;;;5.18;1.30;;;;;;;;;;5084873;28;20427;-65
2022/08/28 10:56:26;;;;;;;5.43;1.40;;;;;;;;;;5082485;28;20055;-65
2022/08/28 10:58:54;;;;;;;6.18;1.80;;;;;;;;;;5084821;28;20024;-65
2022/08/28 11:01:26;;;;;;;8.07;1.70;;;;;;;;;;5082212;28;20118;-65
2022/08/28 11:03:54;;;;;;;5.50;1.60;;;;;;;;;;5084952;28;20490;-66
2022/08/28 11:06:19;;;;;;;7.50;1.60;;;;;;;;;;5078502;28;20038;-65
2022/08/28 11:08:50;;;;;;;8.07;1.42;;;;;;;;;;5080287;28;20036;-65
2022/08/28 11:11:35;;;;;;;7.82;1.90;;;;;;;;;;5077855;28;20043;-65
2022/08/28 11:14:00;;;;;;;6.30;1.42;;;;;;;;;;5077156;28;20110;-65
2022/08/28 11:16:26;;;;;;;7.10;1.48;;;;;;;;;;5079687;28;20020;-65
2022/08/28 11:18:51;;;;;;;4.38;1.60;;;;;;;;;;5080991;28;20115;-65
2022/08/28 11:21:23;;;;;;;6.28;1.58;;;;;;;;;;5081608;28;20074;-65
2022/08/28 11:23:48;;;;;;;;;;;;;;;;;;5085030;28;20043;-65
2022/08/28 11:26:22;;;;;;;5.45;1.48;;;;;;;;;;5077290;28;19915;-65
2022/08/28 11:28:47;;;;;;;5.53;1.60;;;;;;;;;;5081229;28;20841;-65
2022/08/28 11:31:12;;;;;;;8.10;1.70;;;;;;;;;;5081655;28;20130;-65
2022/08/28 11:33:40;;;;;;;8.10;1.80;;;;;;;;;;5074431;28;20025;-65
2022/08/28 11:36:31;;;;;;;7.90;1.50;;;;;;;;;;5079697;28;20109;-65
2022/08/28 11:39:12;;;;;;;7.10;1.58;;;;;;;;;;5077811;28;20043;-65
2022/08/28 11:41:38;;;;;;;7.50;1.60;;;;;;;;;;5080037;28;20067;-65
2022/08/28 11:44:06;;;;;;;7.65;1.60;;;;;;;;;;5083195;28;20278;-65
2022/08/28 11:46:33;;;;;;;6.72;1.52;;;;;;;;;;5079721;28;20434;-65
2022/08/28 11:48:59;;;;;;;7.45;1.48;;;;;;;;;;5088510;28;20460;-65
2022/08/28 11:51:36;;;;;;;8.63;1.60;;;;;;;;;;5088869;28;20035;-64
2022/08/28 11:54:13;;;;;;;6.35;1.90;;;;;;;;;;5091318;28;20012;-65
2022/08/28 11:56:57;;;;;;;8.25;1.60;;;;;;;;;;5085059;28;20021;-65
2022/08/28 11:59:34;;;;;;;8.30;1.60;;;;;;;;;;5071275;28;20440;-65
2022/08/28 12:02:18;;;;;;;6.20;1.65;;;;;;;;;;5082750;28;20430;-65
2022/08/28 12:04:43;;;;;;;7.00;1.60;;;;;;;;;;5075755;28;20063;-65
2022/08/28 12:07:11;;;;;;;6.47;1.83;;;;;;;;;;5083947;28;20055;-65
2022/08/28 12:09:39;;;;;;;6.85;2.15;;;;;;;;;;5095659;28;20028;-64
2022/08/28 12:12:09;;;;;;;5.25;1.45;;;;;;;;;;5088825;28;20044;-65
2022/08/28 12:14:35;;;;;;;6.03;1.60;;;;;;;;;;5075609;28;20040;-65
2022/08/28 12:17:01;;;;;;;5.93;1.40;;;;;;;;;;5081192;28;20051;-65
2022/08/28 12:19:29;;;;;;;11.88;1.80;;;;;;;;;;5090031;28;20486;-64
2022/08/28 12:21:54;;;;;;;7.45;1.58;;;;;;;;;;5074540;28;20024;-64
2022/08/28 12:24:21;;;;;;;5.22;1.42;;;;;;;;;;5093247;28;20574;-65
2022/08/28 12:26:50;;;;;;;4.75;1.73;;;;;;;;;;5084778;28;20460;-65
2022/08/28 12:29:24;;;;;;;6.15;1.40;;;;;;;;;;5085071;28;20032;-65
2022/08/28 12:34:39;;;;;;;5.75;1.63;;;;;;;;;;5091958;28;20404;-65
2022/08/28 12:37:06;;;;;;;6.30;1.50;;;;;;;;;;5094444;28;20013;-65
2022/08/28 12:39:32;;;;;;;6.68;1.58;;;;;;;;;;5090614;28;20078;-65
2022/08/28 12:41:58;;;;;;;8.23;1.75;;;;;;;;;;5086777;28;20032;-65
2022/08/28 12:44:26;;;;;;;7.75;1.83;;;;;;;;;;5085496;28;20024;-65
2022/08/28 12:46:52;;;;;;;8.93;1.88;;;;;;;;;;5089078;28;20028;-65
2022/08/28 12:49:28;;;;;;;9.77;1.85;;;;;;;;;;5084776;28;20585;-65
2022/08/28 12:52:12;;;;;;;7.78;1.63;;;;;;;;;;5081749;28;20099;-65
2022/08/28 12:54:38;;;;;;;9.05;1.92;;;;;;;;;;5088116;28;20020;-65
2022/08/28 12:57:04;;;;;;;5.95;1.63;;;;;;;;;;5080725;28;20024;-65
2022/08/28 12:59:35;;;;;;;9.20;1.77;;;;;;;;;;5086107;28;20483;-65
2022/08/28 13:02:01;;;;;;;6.15;1.85;;;;;;;;;;5079201;28;20020;-65
2022/08/28 13:04:31;;;;;;;6.60;1.90;;;;;;;;;;5081220;28;20541;-65
2022/08/28 13:06:57;;;;;;;5.20;1.80;;;;;;;;;;5076093;28;21506;-64
2022/08/28 13:09:25;;;;;;;8.70;1.80;;;;;;;;;;5083225;28;20024;-65
2022/08/28 13:11:50;;;;;;;6.03;1.70;;;;;;;;;;5091390;28;20027;-65
2022/08/28 13:14:35;;;;;;;4.88;1.50;;;;;;;;;;5091576;28;20487;-65
2022/08/28 13:17:01;;;;;;;11.35;2.67;;;;;;;;;;5086670;28;20028;-65
2022/08/28 13:19:27;;;;;;;4.65;1.50;;;;;;;;;;5084140;28;20039;-65
2022/08/28 13:21:57;;;;;;;5.35;1.50;;;;;;;;;;5075834;28;20028;-65
2022/08/28 13:24:22;;;;;;;8.50;1.60;;;;;;;;;;5084546;28;20526;-65
2022/08/28 13:26:49;;;;;;;6.57;1.85;;;;;;;;;;5082243;28;20027;-65
2022/08/28 13:29:22;;;;;;;6.45;1.70;;;;;;;;;;5092449;28;20108;-65
2022/08/28 13:31:55;;;;;;;6.22;1.67;;;;;;;;;;5085394;28;20020;-65
2022/08/28 13:34:39;;;;;;;6.13;1.70;;;;;;;;;;5091202;28;20483;-65
2022/08/28 13:37:06;;;;;;;8.82;2.10;;;;;;;;;;5081815;28;20708;-65
2022/08/28 13:39:32;;;;;;;7.03;1.92;;;;;;;;;;5074317;28;20028;-65
2022/08/28 13:42:03;;;;;;;7.20;2.20;;;;;;;;;;5083271;28;20020;-65
2022/08/28 13:44:33;;;;;;;6.95;2.00;;;;;;;;;;5083456;28;20024;-66
2022/08/28 13:46:59;;;;;;;6.72;1.90;;;;;;;;;;5083058;28;20028;-65
2022/08/28 13:49:26;;;;;;;5.60;1.90;;;;;;;;;;5088902;28;20028;-66
2022/08/28 13:51:53;;;;;;;7.30;1.80;;;;;;;;;;5078737;28;20880;-65
2022/08/28 13:54:18;;;;;;;5.90;1.70;;;;;;;;;;5074435;28;20031;-66
2022/08/28 13:56:43;;;;;;;4.50;1.58;;;;;;;;;;5076225;28;20021;-65
2022/08/28 13:59:08;;;;;;;5.25;1.70;;;;;;;;;;5073074;28;20044;-65
2022/08/28 14:04:17;;;;;;;8.93;2.10;;;;;;;;;;5072730;28;20031;-65
2022/08/28 14:06:43;;;;;;;5.70;1.65;;;;;;;;;;5076661;28;20480;-65
2022/08/28 14:09:14;;;;;;;4.65;1.67;;;;;;;;;;5077934;28;20058;-65
2022/08/28 14:11:40;;;;;;;7.03;1.80;;;;;;;;;;5082859;28;20383;-66
2022/08/28 14:14:06;;;;;;;5.78;1.90;;;;;;;;;;5084527;28;20095;-65
2022/08/28 14:16:32;;;;;;;6.75;1.95;;;;;;;;;;5077134;28;20017;-65
2022/08/28 14:19:02;;;;;;;5.40;2.00;;;;;;;;;;5087130;28;20365;-66
2022/08/28 14:21:28;;;;;;;6.55;1.90;;;;;;;;;;5078122;28;20029;-65
2022/08/28 14:23:55;;;;;;;4.68;1.92;;;;;;;;;;5080208;28;20027;-65
2022/08/28 14:26:21;;;;;;;7.32;1.77;;;;;;;;;;5088911;28;20111;-66
2022/08/28 14:28:46;;;;;;;7.88;2.00;;;;;;;;;;5083454;28;20176;-66
2022/08/28 14:31:11;;;;;;;5.30;1.88;;;;;;;;;;5087220;28;20020;-66
2022/08/28 14:33:37;;;;;;;7.03;2.38;;;;;;;;;;5085703;28;20051;-66
2022/08/28 14:36:03;;;;;;;8.90;2.40;;;;;;;;;;5089189;28;20403;-66
2022/08/28 14:38:28;;;;;;;8.30;2.50;;;;;;;;;;5087537;28;20035;-65
2022/08/28 14:40:53;;;;;;;5.10;2.05;;;;;;;;;;5092323;28;20081;-65
2022/08/28 14:43:19;;;;;;;8.15;2.25;;;;;;;;;;5082078;28;20028;-65
2022/08/28 14:45:45;;;;;;;7.22;2.15;;;;;;;;;;5089505;28;20051;-66
2022/08/28 14:48:11;;;;;;;5.70;1.85;;;;;;;;;;5091582;28;20464;-66
2022/08/28 14:50:37;;;;;;;5.65;2.28;;;;;;;;;;5090099;28;20039;-65
2022/08/28 14:53:03;;;;;;;6.45;1.70;;;;;;;;;;5089856;28;20016;-65
2022/08/28 14:55:28;;;;;;;6.60;1.73;;;;;;;;;;5085276;28;20024;-65